createdAt,value
2018-09-09T00:00:45.040Z,77.80
2018-09-09T00:03:16.303Z,78.30
2018-09-09T00:05:47.565Z,78.20
2018-09-09T00:08:18.812Z,78.40
2018-09-09T00:10:50.081Z,78.30
2018-09-09T00:13:21.330Z,78.20
2018-09-09T00:15:52.589Z,78.00
2018-09-09T00:18:23.828Z,77.90
2018-09-09T00:20:55.091Z,78.10
2018-09-09T00:23:26.348Z,77.90
2018-09-09T00:25:57.646Z,77.90
2018-09-09T00:28:28.906Z,78.00
2018-09-09T00:31:00.184Z,78.40
2018-09-09T00:33:31.439Z,79.40
2018-09-09T00:36:02.709Z,79.00
2018-09-09T00:38:33.958Z,78.80
2018-09-09T00:41:05.239Z,78.60
2018-09-09T00:43:37.040Z,78.20
2018-09-09T00:46:08.305Z,78.20
2018-09-09T00:48:39.558Z,78.90
2018-09-09T00:51:16.706Z,78.80
2018-09-09T00:53:48.220Z,79.00
2018-09-09T00:56:19.520Z,79.30
2018-09-09T00:58:50.786Z,78.50
2018-09-09T01:01:22.090Z,78.50
2018-09-09T01:03:53.350Z,78.20
2018-09-09T01:06:24.632Z,77.70
2018-09-09T01:08:55.911Z,78.20
2018-09-09T01:11:27.214Z,78.40
2018-09-09T01:13:58.481Z,78.50
2018-09-09T01:16:29.737Z,78.70
2018-09-09T01:19:00.987Z,77.90
2018-09-09T01:21:32.258Z,78.20
2018-09-09T01:24:03.557Z,77.80
2018-09-09T01:26:34.828Z,77.30
2018-09-09T01:29:06.085Z,76.80
2018-09-09T01:31:37.362Z,77.30
2018-09-09T01:34:08.626Z,78.70
2018-09-09T01:36:39.919Z,78.70
2018-09-09T01:39:11.188Z,78.90
2018-09-09T01:41:42.463Z,79.20
2018-09-09T01:44:13.714Z,78.50
2018-09-09T01:46:44.994Z,78.20
2018-09-09T01:49:16.267Z,78.90
2018-09-09T01:51:47.529Z,78.50
2018-09-09T01:54:18.781Z,78.20
2018-09-09T01:56:50.037Z,78.00
2018-09-09T01:59:21.277Z,79.00
2018-09-09T02:01:52.629Z,79.30
2018-09-09T02:04:23.877Z,79.20
2018-09-09T02:06:55.133Z,79.60
2018-09-09T02:09:26.385Z,79.40
2018-09-09T02:11:57.664Z,79.10
2018-09-09T02:14:28.935Z,79.20
2018-09-09T02:17:00.201Z,79.80
2018-09-09T02:19:31.445Z,79.50
2018-09-09T02:22:03.942Z,79.70
2018-09-09T02:24:35.194Z,79.40
2018-09-09T02:27:06.499Z,80.00
2018-09-09T02:29:37.762Z,79.40
2018-09-09T02:32:09.018Z,79.70
2018-09-09T02:34:40.309Z,79.90
2018-09-09T02:37:11.586Z,80.00
2018-09-09T02:39:42.835Z,81.00
2018-09-09T02:42:14.110Z,80.40
2018-09-09T02:44:45.391Z,80.40
2018-09-09T02:47:16.669Z,79.60
2018-09-09T02:49:47.917Z,79.70
2018-09-09T02:52:19.185Z,79.40
2018-09-09T02:54:50.452Z,80.30
2018-09-09T02:57:21.729Z,80.30
2018-09-09T02:59:52.974Z,78.90
2018-09-09T03:02:24.259Z,78.30
2018-09-09T03:04:55.526Z,78.60
2018-09-09T03:07:26.782Z,79.80
2018-09-09T03:09:58.060Z,80.00
2018-09-09T03:12:29.334Z,80.00
2018-09-09T03:15:00.584Z,78.60
2018-09-09T03:17:31.853Z,79.10
2018-09-09T03:20:03.105Z,78.70
2018-09-09T03:22:34.365Z,77.50
2018-09-09T03:25:05.621Z,78.60
2018-09-09T03:27:36.909Z,78.50
2018-09-09T03:30:08.178Z,79.30
2018-09-09T03:32:39.463Z,78.90
2018-09-09T03:35:10.723Z,78.60
2018-09-09T03:37:42.010Z,79.30
2018-09-09T03:40:13.271Z,79.60
2018-09-09T03:42:44.545Z,79.90
2018-09-09T03:45:15.811Z,80.30
2018-09-09T03:47:47.078Z,80.40
2018-09-09T03:50:18.348Z,80.40
2018-09-09T03:52:49.601Z,80.50
2018-09-09T03:55:20.862Z,81.10
2018-09-09T03:57:52.167Z,80.40
2018-09-09T04:00:23.426Z,80.80
2018-09-09T04:02:54.701Z,80.60
2018-09-09T04:05:25.973Z,80.20
2018-09-09T04:07:57.246Z,81.20
2018-09-09T04:10:28.534Z,81.10
2018-09-09T04:12:59.807Z,81.10
2018-09-09T04:15:31.084Z,81.70
2018-09-09T04:18:02.345Z,81.40
2018-09-09T04:20:33.590Z,81.10
2018-09-09T04:23:04.849Z,81.00
2018-09-09T04:25:36.105Z,81.50
2018-09-09T04:28:07.391Z,80.80
2018-09-09T04:30:38.649Z,80.90
2018-09-09T04:33:09.912Z,79.70
2018-09-09T04:35:41.177Z,79.70
2018-09-09T04:38:12.442Z,79.00
2018-09-09T04:40:43.706Z,78.10
2018-09-09T04:43:14.991Z,80.00
2018-09-09T04:45:46.238Z,80.10
2018-09-09T04:48:17.769Z,80.20
2018-09-09T04:50:49.035Z,79.80
2018-09-09T04:53:20.298Z,80.10
2018-09-09T04:55:51.557Z,78.90
2018-09-09T04:58:22.887Z,79.00
2018-09-09T05:00:54.146Z,78.80
2018-09-09T05:03:25.405Z,79.40
2018-09-09T05:05:56.684Z,79.80
2018-09-09T05:08:27.942Z,79.80
2018-09-09T05:10:59.185Z,79.10
2018-09-09T05:13:30.454Z,78.90
2018-09-09T05:16:01.719Z,79.80
2018-09-09T05:18:32.985Z,81.10
2018-09-09T05:21:04.245Z,81.30
2018-09-09T05:23:35.545Z,81.50
2018-09-09T05:26:06.786Z,81.30
2018-09-09T05:28:38.092Z,81.50
2018-09-09T05:31:09.349Z,81.20
2018-09-09T05:33:40.647Z,80.50
2018-09-09T05:36:11.908Z,81.30
2018-09-09T05:38:43.173Z,81.40
2018-09-09T05:41:14.444Z,81.20
2018-09-09T05:43:45.726Z,81.20
2018-09-09T05:46:16.978Z,81.10
2018-09-09T05:48:48.270Z,80.80
2018-09-09T05:51:19.517Z,81.30
2018-09-09T05:53:50.823Z,80.40
2018-09-09T05:56:22.029Z,80.80
2018-09-09T05:58:53.329Z,80.90
2018-09-09T06:01:24.656Z,80.90
2018-09-09T06:03:55.918Z,81.20
2018-09-09T06:06:27.169Z,80.70
2018-09-09T06:08:58.460Z,80.10
2018-09-09T06:11:29.720Z,80.50
2018-09-09T06:14:00.998Z,80.30
2018-09-09T06:16:32.250Z,79.70
2018-09-09T06:19:03.730Z,80.10
2018-09-09T06:21:35.026Z,79.30
2018-09-09T06:24:06.295Z,79.00
2018-09-09T06:26:37.550Z,78.30
2018-09-09T06:29:08.844Z,78.00
2018-09-09T06:31:40.090Z,78.60
2018-09-09T06:34:11.391Z,78.40
2018-09-09T06:36:42.651Z,79.10
2018-09-09T06:39:13.917Z,79.20
2018-09-09T06:41:45.161Z,79.20
2018-09-09T06:44:16.439Z,78.80
2018-09-09T06:46:47.701Z,78.80
2018-09-09T06:49:18.967Z,78.90
2018-09-09T06:51:50.263Z,78.70
2018-09-09T06:54:21.549Z,79.50
2018-09-09T06:56:53.125Z,78.80
2018-09-09T06:59:24.420Z,79.30
2018-09-09T07:01:55.673Z,78.50
2018-09-09T07:04:26.954Z,79.00
2018-09-09T07:06:58.218Z,78.20
2018-09-09T07:09:29.489Z,78.70
2018-09-09T07:12:00.886Z,77.00
2018-09-09T07:14:32.030Z,77.30
2018-09-09T07:17:03.512Z,77.40
2018-09-09T07:19:34.855Z,76.10
2018-09-09T07:22:06.107Z,75.80
2018-09-09T07:24:37.378Z,75.50
2018-09-09T07:27:08.637Z,76.30
2018-09-09T07:29:40.070Z,76.20
2018-09-09T07:32:11.498Z,75.30
2018-09-09T07:34:42.845Z,75.00
2018-09-09T07:37:14.140Z,74.70
2018-09-09T07:39:45.389Z,75.10
2018-09-09T07:42:16.651Z,74.10
2018-09-09T07:44:47.914Z,72.80
2018-09-09T07:47:19.187Z,72.00
2018-09-09T07:49:50.446Z,71.30
2018-09-09T07:52:21.693Z,70.30
2018-09-09T07:54:52.954Z,70.10
2018-09-09T07:57:24.208Z,69.00
2018-09-09T07:59:55.500Z,68.00
2018-09-09T08:02:26.769Z,68.00
2018-09-09T08:04:58.073Z,66.90
2018-09-09T08:07:29.316Z,66.50
2018-09-09T08:10:00.735Z,66.40
2018-09-09T08:12:31.985Z,64.20
2018-09-09T08:15:03.245Z,63.20
2018-09-09T08:17:34.525Z,63.60
2018-09-09T08:20:05.812Z,64.70
2018-09-09T08:22:37.074Z,62.30
2018-09-09T08:25:08.337Z,64.60
2018-09-09T08:27:39.600Z,62.20
2018-09-09T08:30:10.913Z,62.20
2018-09-09T08:32:42.201Z,62.00
2018-09-09T08:35:13.556Z,62.10
2018-09-09T08:37:44.819Z,61.40
2018-09-09T08:40:16.089Z,59.60
2018-09-09T08:42:47.378Z,61.60
2018-09-09T08:45:18.700Z,60.60
2018-09-09T08:47:49.905Z,60.30
2018-09-09T08:50:21.171Z,59.30
2018-09-09T08:52:52.417Z,60.10
2018-09-09T08:55:23.677Z,58.90
2018-09-09T08:57:54.938Z,58.60
2018-09-09T09:00:26.217Z,57.60
2018-09-09T09:02:57.559Z,59.10
2018-09-09T09:05:28.814Z,57.20
2018-09-09T09:08:00.190Z,55.30
2018-09-09T09:10:31.533Z,55.40
2018-09-09T09:13:02.791Z,54.80
2018-09-09T09:15:34.071Z,54.50
2018-09-09T09:18:05.321Z,53.60
2018-09-09T09:20:36.612Z,53.20
2018-09-09T09:23:07.853Z,52.40
2018-09-09T09:25:44.891Z,51.90
2018-09-09T09:28:16.164Z,50.20
2018-09-09T09:30:47.601Z,51.30
2018-09-09T09:33:18.731Z,50.70
2018-09-09T09:35:52.142Z,50.20
2018-09-09T09:38:23.439Z,49.90
2018-09-09T09:40:54.715Z,50.40
2018-09-09T09:43:25.977Z,49.20
2018-09-09T09:45:57.259Z,48.40
2018-09-09T09:48:28.523Z,49.00
2018-09-09T09:50:59.925Z,46.60
2018-09-09T09:53:31.181Z,48.30
2018-09-09T09:56:02.437Z,48.90
2018-09-09T09:58:33.693Z,56.30
2018-09-09T10:01:06.657Z,55.00
2018-09-09T10:03:38.061Z,54.10
2018-09-09T10:06:09.311Z,53.50
2018-09-09T10:08:40.584Z,50.90
2018-09-09T10:11:11.872Z,49.90
2018-09-09T10:13:43.204Z,48.00
2018-09-09T10:16:14.485Z,48.50
2018-09-09T10:18:45.734Z,48.40
2018-09-09T10:21:17.015Z,48.70
2018-09-09T10:23:48.351Z,46.30
2018-09-09T10:26:19.557Z,47.50
2018-09-09T10:28:50.894Z,45.90
2018-09-09T10:31:22.195Z,45.70
2018-09-09T10:33:53.449Z,44.70
2018-09-09T10:36:24.708Z,44.90
2018-09-09T10:38:55.963Z,45.60
2018-09-09T10:41:27.238Z,46.60
2018-09-09T10:43:58.515Z,46.60
2018-09-09T10:46:29.826Z,45.00
2018-09-09T10:49:01.176Z,43.30
2018-09-09T10:51:32.470Z,42.10
2018-09-09T10:54:04.641Z,42.40
2018-09-09T10:56:35.919Z,43.50
2018-09-09T10:59:07.269Z,45.50
2018-09-09T11:01:38.564Z,42.00
2018-09-09T11:04:09.877Z,44.40
2018-09-09T11:06:41.179Z,41.60
2018-09-09T11:09:12.427Z,43.50
2018-09-09T11:11:43.707Z,41.80
2018-09-09T11:14:14.961Z,43.60
2018-09-09T11:16:46.242Z,43.50
2018-09-09T11:19:17.491Z,43.70
2018-09-09T11:21:48.749Z,43.50
2018-09-09T11:24:20.036Z,44.90
2018-09-09T11:26:51.316Z,43.40
2018-09-09T11:29:22.613Z,43.00
2018-09-09T11:31:53.896Z,43.00
2018-09-09T11:34:25.149Z,42.50
2018-09-09T11:36:56.422Z,42.10
2018-09-09T11:39:27.726Z,41.40
2018-09-09T11:41:59.006Z,42.60
2018-09-09T11:44:30.295Z,43.50
2018-09-09T11:47:01.585Z,41.00
2018-09-09T11:49:32.854Z,41.70
2018-09-09T11:52:04.128Z,42.80
2018-09-09T11:54:35.509Z,42.70
2018-09-09T11:57:06.765Z,42.60
2018-09-09T11:59:38.021Z,43.60
2018-09-09T12:02:09.374Z,41.00
2018-09-09T12:04:40.567Z,41.20
2018-09-09T12:07:11.866Z,41.50
2018-09-09T12:09:43.135Z,41.30
2018-09-09T12:12:14.561Z,42.00
2018-09-09T12:14:45.845Z,43.30
2018-09-09T12:17:17.113Z,43.00
2018-09-09T12:19:48.382Z,41.60
2018-09-09T12:22:19.664Z,40.60
2018-09-09T12:24:50.954Z,40.90
2018-09-09T12:27:22.236Z,39.10
2018-09-09T12:29:53.486Z,39.50
2018-09-09T12:32:24.845Z,40.40
2018-09-09T12:34:56.087Z,41.90
2018-09-09T12:37:27.354Z,38.50
2018-09-09T12:39:58.605Z,39.00
2018-09-09T12:42:29.907Z,39.20
2018-09-09T12:45:07.058Z,37.30
2018-09-09T12:47:44.202Z,38.30
2018-09-09T12:50:15.501Z,40.00
2018-09-09T12:52:46.784Z,39.90
2018-09-09T12:55:18.171Z,39.00
2018-09-09T12:57:49.471Z,39.80
2018-09-09T13:00:20.806Z,40.30
2018-09-09T13:02:52.049Z,40.60
2018-09-09T13:05:23.305Z,39.60
2018-09-09T13:07:54.637Z,39.60
2018-09-09T13:10:25.911Z,38.90
2018-09-09T13:13:02.778Z,37.50
2018-09-09T13:15:34.041Z,39.40
2018-09-09T13:18:05.497Z,40.00
2018-09-09T13:20:36.760Z,37.30
2018-09-09T13:23:08.061Z,36.50
2018-09-09T13:25:39.421Z,37.10
2018-09-09T13:28:10.673Z,38.70
2018-09-09T13:30:42.114Z,38.90
2018-09-09T13:33:13.402Z,38.00
2018-09-09T13:35:44.694Z,37.90
2018-09-09T13:38:15.969Z,39.00
2018-09-09T13:40:53.414Z,40.10
2018-09-09T13:43:24.632Z,41.40
2018-09-09T13:45:55.926Z,40.40
2018-09-09T13:48:27.201Z,41.20
2018-09-09T13:50:58.454Z,38.20
2018-09-09T13:53:29.719Z,38.40
2018-09-09T13:56:01.011Z,37.80
2018-09-09T13:58:32.271Z,39.20
2018-09-09T14:01:03.541Z,40.50
2018-09-09T14:03:34.819Z,41.10
2018-09-09T14:06:06.089Z,38.10
2018-09-09T14:08:38.361Z,37.80
2018-09-09T14:11:09.618Z,37.00
2018-09-09T14:13:40.889Z,39.50
2018-09-09T14:16:12.205Z,38.00
2018-09-09T14:18:43.489Z,37.60
2018-09-09T14:21:14.754Z,37.70
2018-09-09T14:23:46.016Z,37.20
2018-09-09T14:26:17.278Z,37.40
2018-09-09T14:28:48.621Z,35.80
2018-09-09T14:31:19.882Z,36.80
2018-09-09T14:33:51.210Z,44.00
2018-09-09T14:36:22.468Z,51.80
2018-09-09T14:38:53.747Z,43.50
2018-09-09T14:41:25.001Z,40.70
2018-09-09T14:43:56.258Z,41.20
2018-09-09T14:46:27.501Z,40.00
2018-09-09T14:48:58.775Z,39.80
2018-09-09T14:51:30.029Z,38.70
2018-09-09T14:54:01.312Z,41.20
2018-09-09T14:56:32.567Z,39.40
2018-09-09T14:59:03.833Z,39.60
2018-09-09T15:01:35.094Z,36.60
2018-09-09T15:04:06.426Z,39.00
2018-09-09T15:06:37.780Z,38.00
2018-09-09T15:09:10.456Z,39.80
2018-09-09T15:11:41.812Z,39.10
2018-09-09T15:14:13.204Z,38.10
2018-09-09T15:16:44.638Z,38.00
2018-09-09T15:19:15.924Z,38.20
2018-09-09T15:21:47.290Z,38.50
2018-09-09T15:24:18.654Z,38.20
2018-09-09T15:26:50.042Z,39.30
2018-09-09T15:29:21.422Z,38.10
2018-09-09T15:31:52.802Z,38.00
2018-09-09T15:34:24.309Z,36.80
2018-09-09T15:36:55.568Z,36.70
2018-09-09T15:39:26.966Z,36.50
2018-09-09T15:41:58.351Z,38.90
2018-09-09T15:44:29.751Z,38.30
2018-09-09T15:47:01.185Z,39.20
2018-09-09T15:49:32.550Z,40.70
2018-09-09T15:52:03.927Z,40.90
2018-09-09T15:54:35.330Z,41.10
2018-09-09T15:57:06.654Z,39.60
2018-09-09T15:59:38.047Z,41.10
2018-09-09T16:02:09.411Z,41.00
2018-09-09T16:04:40.953Z,41.70
2018-09-09T16:07:12.338Z,38.70
2018-09-09T16:09:43.595Z,38.00
2018-09-09T16:12:14.952Z,38.70
2018-09-09T16:14:46.365Z,38.90
2018-09-09T16:17:17.725Z,39.60
2018-09-09T16:19:49.072Z,40.10
2018-09-09T16:22:20.445Z,38.70
2018-09-09T16:24:51.838Z,37.70
2018-09-09T16:27:23.185Z,39.50
2018-09-09T16:29:54.558Z,38.70
2018-09-09T16:32:25.943Z,43.40
2018-09-09T16:34:57.383Z,41.10
2018-09-09T16:37:28.750Z,39.80
2018-09-09T16:40:00.076Z,40.00
2018-09-09T16:42:31.779Z,38.10
2018-09-09T16:45:03.187Z,38.80
2018-09-09T16:47:34.586Z,48.60
2018-09-09T16:50:06.203Z,42.80
2018-09-09T16:52:37.595Z,40.20
2018-09-09T16:55:09.024Z,39.30
2018-09-09T16:57:40.394Z,39.80
2018-09-09T17:00:11.831Z,41.50
2018-09-09T17:02:43.179Z,45.70
2018-09-09T17:05:14.559Z,46.50
2018-09-09T17:07:45.952Z,47.50
2018-09-09T17:10:17.310Z,49.20
2018-09-09T17:12:48.743Z,49.40
2018-09-09T17:15:20.137Z,64.00
2018-09-09T17:17:51.518Z,62.30
2018-09-09T17:20:22.954Z,53.10
2018-09-09T17:22:54.554Z,53.20
2018-09-09T17:25:25.947Z,54.30
2018-09-09T17:27:57.668Z,54.50
2018-09-09T17:30:29.096Z,55.30
2018-09-09T17:33:00.496Z,55.20
2018-09-09T17:35:31.904Z,55.10
2018-09-09T17:38:03.251Z,53.70
2018-09-09T17:40:34.625Z,54.20
2018-09-09T17:43:05.912Z,54.30
2018-09-09T17:45:37.305Z,54.80
2018-09-09T17:48:08.664Z,55.60
2018-09-09T17:50:40.098Z,56.50
2018-09-09T17:53:11.490Z,56.20
2018-09-09T17:55:42.887Z,56.10
2018-09-09T17:58:14.256Z,56.80
2018-09-09T18:00:45.789Z,57.30
2018-09-09T18:03:17.187Z,57.50
2018-09-09T18:05:48.588Z,57.60
2018-09-09T18:08:19.944Z,57.70
2018-09-09T18:10:51.356Z,57.10
2018-09-09T18:13:22.744Z,56.80
2018-09-09T18:15:54.109Z,58.10
2018-09-09T18:18:25.433Z,58.10
2018-09-09T18:20:56.742Z,59.10
2018-09-09T18:23:28.018Z,59.90
2018-09-09T18:25:59.290Z,60.10
2018-09-09T18:28:30.547Z,60.20
2018-09-09T18:31:01.799Z,61.10
2018-09-09T18:33:33.045Z,61.00
2018-09-09T18:36:04.310Z,63.10
2018-09-09T18:38:35.589Z,60.70
2018-09-09T18:41:06.835Z,61.40
2018-09-09T18:43:38.105Z,61.30
2018-09-09T18:46:09.358Z,61.50
2018-09-09T18:48:40.605Z,62.00
2018-09-09T18:51:11.898Z,62.30
2018-09-09T18:53:43.147Z,63.00
2018-09-09T18:56:14.413Z,62.90
2018-09-09T18:58:45.671Z,63.90
2018-09-09T19:01:16.943Z,64.00
2018-09-09T19:03:48.277Z,63.90
2018-09-09T19:06:19.600Z,64.10
2018-09-09T19:08:50.807Z,64.80
2018-09-09T19:11:22.156Z,64.90
2018-09-09T19:13:53.448Z,64.40
2018-09-09T19:16:24.767Z,64.90
2018-09-09T19:18:56.014Z,65.60
2018-09-09T19:21:27.360Z,65.10
2018-09-09T19:23:58.641Z,66.20
2018-09-09T19:26:29.923Z,66.30
2018-09-09T19:29:01.301Z,66.80
2018-09-09T19:31:32.470Z,65.80
2018-09-09T19:34:03.741Z,67.30
2018-09-09T19:36:35.073Z,66.30
2018-09-09T19:39:06.283Z,66.70
2018-09-09T19:41:37.586Z,67.30
2018-09-09T19:44:08.992Z,66.50
2018-09-09T19:46:40.234Z,67.10
2018-09-09T19:49:11.490Z,67.50
2018-09-09T19:51:42.759Z,68.90
2018-09-09T19:54:14.023Z,67.30
2018-09-09T19:56:45.287Z,68.00
2018-09-09T19:59:16.534Z,68.30
2018-09-09T20:01:47.789Z,67.90
2018-09-09T20:04:19.038Z,67.90
2018-09-09T20:06:50.302Z,68.70
2018-09-09T20:09:21.606Z,68.30
2018-09-09T20:11:52.904Z,68.50
2018-09-09T20:14:24.160Z,69.20
2018-09-09T20:16:55.455Z,68.70
2018-09-09T20:19:26.795Z,68.70
2018-09-09T20:21:58.074Z,69.00
2018-09-09T20:24:29.334Z,69.80
2018-09-09T20:27:00.622Z,70.40
2018-09-09T20:29:31.903Z,70.20
2018-09-09T20:32:03.207Z,70.90
2018-09-09T20:34:34.569Z,70.00
2018-09-09T20:37:05.878Z,70.20
2018-09-09T20:39:37.177Z,69.80
2018-09-09T20:42:08.504Z,71.30
2018-09-09T20:44:39.836Z,69.70
2018-09-09T20:47:11.218Z,71.20
2018-09-09T20:49:42.755Z,70.10
2018-09-09T20:52:14.204Z,70.90
2018-09-09T20:54:45.571Z,70.90
2018-09-09T20:57:17.000Z,71.10
2018-09-09T20:59:48.407Z,70.90
2018-09-09T21:02:19.777Z,71.90
2018-09-09T21:04:51.247Z,72.20
2018-09-09T21:07:22.696Z,72.30
2018-09-09T21:09:54.085Z,71.50
2018-09-09T21:12:25.665Z,71.50
2018-09-09T21:14:57.074Z,71.30
2018-09-09T21:17:28.496Z,71.60
2018-09-09T21:19:59.967Z,71.70
2018-09-09T21:22:31.920Z,72.00
2018-09-09T21:25:03.281Z,72.10
2018-09-09T21:27:49.577Z,73.30
2018-09-09T21:30:20.967Z,72.70
2018-09-09T21:32:52.383Z,72.90
2018-09-09T21:35:23.732Z,72.80
2018-09-09T21:37:55.037Z,73.10
2018-09-09T21:40:26.337Z,72.70
2018-09-09T21:42:57.684Z,73.20
2018-09-09T21:45:29.023Z,73.80
2018-09-09T21:48:00.277Z,73.40
2018-09-09T21:50:31.618Z,74.00
2018-09-09T21:53:02.909Z,73.20
2018-09-09T21:55:34.217Z,74.00
2018-09-09T21:58:05.481Z,73.20
2018-09-09T22:00:42.592Z,73.60
2018-09-09T22:03:13.845Z,73.30
2018-09-09T22:05:45.130Z,73.90
2018-09-09T22:08:16.419Z,74.20
2018-09-09T22:10:47.750Z,74.00
2018-09-09T22:13:19.094Z,74.40
2018-09-09T22:15:50.442Z,74.00
2018-09-09T22:18:21.717Z,74.20
2018-09-09T22:20:53.019Z,74.90
2018-09-09T22:23:24.309Z,74.80
2018-09-09T22:25:55.580Z,74.80
2018-09-09T22:28:26.856Z,74.60
2018-09-09T22:30:58.189Z,75.20
2018-09-09T22:33:29.503Z,74.30
2018-09-09T22:36:00.775Z,74.80
2018-09-09T22:38:32.221Z,74.80
2018-09-09T22:41:03.611Z,75.10
2018-09-09T22:43:35.058Z,75.00
2018-09-09T22:46:06.444Z,74.80
2018-09-09T22:48:37.826Z,75.00
2018-09-09T22:51:09.194Z,75.50
2018-09-09T22:53:40.589Z,75.30
2018-09-09T22:56:11.959Z,75.30
2018-09-09T22:58:43.294Z,76.00
2018-09-09T23:01:14.633Z,75.80
2018-09-09T23:03:46.081Z,75.80
2018-09-09T23:06:17.505Z,75.90
2018-09-09T23:08:48.904Z,76.30
2018-09-09T23:11:20.271Z,75.80
2018-09-09T23:13:51.647Z,75.80
2018-09-09T23:16:22.992Z,75.90
2018-09-09T23:18:54.362Z,76.60
2018-09-09T23:21:25.809Z,76.50
2018-09-09T23:23:57.299Z,76.80
2018-09-09T23:26:28.667Z,77.40
2018-09-09T23:29:00.017Z,77.30
2018-09-09T23:31:31.373Z,77.00
2018-09-09T23:34:02.734Z,76.50
2018-09-09T23:36:34.138Z,76.20
2018-09-09T23:39:05.546Z,76.80
2018-09-09T23:41:36.909Z,77.30
2018-09-09T23:44:08.431Z,77.50
2018-09-09T23:46:39.720Z,77.00
2018-09-09T23:49:11.027Z,77.00
2018-09-09T23:51:42.391Z,76.90
2018-09-09T23:54:13.754Z,77.30
2018-09-09T23:56:45.059Z,77.00
2018-09-09T23:59:16.437Z,77.20
